^^
Saratoga-Weather Station Historical Data
Daily Summary for June 27, 2020 Units:  Metric    English   Both
Daily Weekly Monthly Yearly Custom
  High: Low: Average:
Temperature: 4.4 °C 0.6 °C 2.3 °C
Dew Point: 4.1 °C -0.1 °C 1 °C
Humidity: 98% 84% 91%
Wind Speed: 50.1km/h 0km/h 8.8km/h
Wind Gust: 56.3km/h - -
Wind- - SSW
Pressure: 1012.5 hPa 986.8 hPa -
Precipitation: 14.7 mm    
Historical Graphs
 
 
Tabular Data for June 27, 2020
Time Temperature Dew Point Pressure Wind Wind Speed Wind Gust Humidity Rainfall Rate (Hourly) solar
00:04 2.6 °C 1.1 °C 1009.5 hPa WSW 3.2 km/h 3.2 km/h 90% 0.0 mm 0 W/m2
00:09 2.6 °C 1.1 °C 1009.5 hPa SE 1.4 km/h 3.2 km/h 90% 0.0 mm 0 W/m2
00:14 2.6 °C 1 °C 1009.5 hPa West 3.2 km/h 4.8 km/h 89% 0.0 mm 0 W/m2
00:19 2.6 °C 1.1 °C 1009.5 hPa WSW 4.7 km/h 17.7 km/h 90% 0.0 mm 0 W/m2
00:24 2.6 °C 1.1 °C 1009.1 hPa West 1.4 km/h 3.2 km/h 90% 0.0 mm 0 W/m2
00:29 2.6 °C 1.1 °C 1009.1 hPa WNW 3.2 km/h 6.4 km/h 90% 0.0 mm 0 W/m2
00:34 2.5 °C 1 °C 1009.1 hPa WNW 7.9 km/h 9.7 km/h 90% 0.0 mm 0 W/m2
00:39 2.6 °C 1.1 °C 1009.5 hPa WNW 1.4 km/h 6.4 km/h 90% 0.0 mm 0 W/m2
00:44 2.6 °C 1.1 °C 1009.5 hPa West 3.2 km/h 4.8 km/h 90% 0.0 mm 0 W/m2
00:49 2.6 °C 1.1 °C 1009.5 hPa West 1.4 km/h 12.9 km/h 90% 0.0 mm 0 W/m2
00:54 2.5 °C 1 °C 1009.5 hPa SSW 1.4 km/h 6.4 km/h 90% 0.0 mm 0 W/m2
00:59 2.4 °C 0.9 °C 1009.5 hPa Calm   9.7 km/h 90% 0.0 mm 0 W/m2
01:04 2.3 °C 0.8 °C 1009.5 hPa NW 4.7 km/h 6.4 km/h 90% 0.0 mm 0 W/m2
01:09 2.3 °C 0.8 °C 1009.1 hPa WNW 3.2 km/h 12.9 km/h 90% 0.0 mm 0 W/m2
01:14 2.3 °C 0.8 °C 1009.1 hPa West 4.7 km/h 9.7 km/h 90% 0.0 mm 0 W/m2
01:19 2.3 °C 1 °C 1009.1 hPa West 3.2 km/h 11.3 km/h 91% 0.0 mm 0 W/m2
01:24 2.3 °C 1 °C 1009.1 hPa Calm   3.2 km/h 91% 0.0 mm 0 W/m2
01:29 2.3 °C 1 °C 1009.1 hPa WNW 4.7 km/h 6.4 km/h 91% 0.0 mm 0 W/m2
01:34 2.3 °C 1 °C 1009.1 hPa NW 1.4 km/h 8 km/h 91% 0.0 mm 0 W/m2
01:39 2.3 °C 1 °C 1009.1 hPa WNW 1.4 km/h 6.4 km/h 91% 0.0 mm 0 W/m2
01:44 2.3 °C 1 °C 1009.5 hPa WNW 1.4 km/h 8 km/h 91% 0.0 mm 0 W/m2
01:49 2.3 °C 1 °C 1009.5 hPa NW 3.2 km/h 3.2 km/h 91% 0.0 mm 0 W/m2
01:54 2.3 °C 1 °C 1009.5 hPa NW 3.2 km/h 6.4 km/h 91% 0.0 mm 0 W/m2
01:59 2.2 °C 0.9 °C 1009.5 hPa West 3.2 km/h 4.8 km/h 91% 0.0 mm 0 W/m2
02:04 2.2 °C 0.9 °C 1009.1 hPa Calm   4.8 km/h 91% 0.0 mm 0 W/m2
02:09 2.3 °C 1 °C 1009.5 hPa WNW 4.7 km/h 4.8 km/h 91% 0.0 mm 0 W/m2
02:14 2.3 °C 1 °C 1009.5 hPa Calm   1.6 km/h 91% 0.0 mm 0 W/m2
02:19 2.3 °C 1 °C 1009.5 hPa Calm   4.8 km/h 91% 0.2 mm 0 W/m2
02:24 2.3 °C 1 °C 1009.5 hPa NNW 4.7 km/h 4.8 km/h 91% 0.2 mm 0 W/m2
02:29 2.2 °C 0.9 °C 1009.5 hPa West 3.2 km/h 3.2 km/h 91% 0.2 mm 0 W/m2
02:34 2.2 °C 1 °C 1009.5 hPa WNW 3.2 km/h 3.2 km/h 92% 0.2 mm 0 W/m2
02:39 2.1 °C 0.9 °C 1009.1 hPa West 6.4 km/h 12.9 km/h 92% 0.2 mm 0 W/m2
02:44 1.9 °C 0.7 °C 1009.1 hPa Calm   3.2 km/h 92% 0.5 mm 0 W/m2
02:49 1.9 °C 0.7 °C 1009.1 hPa SSW 4.7 km/h 8 km/h 92% 0.5 mm 0 W/m2
02:54 1.8 °C 0.6 °C 1009.1 hPa West 3.2 km/h 3.2 km/h 92% 0.5 mm 0 W/m2
02:59 1.8 °C 0.8 °C 1009.1 hPa WNW 1.4 km/h 3.2 km/h 93% 0.5 mm 0 W/m2
03:04 1.8 °C 0.8 °C 1009.1 hPa WNW 1.4 km/h 3.2 km/h 93% 0.5 mm 0 W/m2
03:09 1.8 °C 0.8 °C 1009.1 hPa West 3.2 km/h 8 km/h 93% 0.5 mm 0 W/m2
03:14 1.8 °C 0.8 °C 1009.1 hPa WNW 4.7 km/h 4.8 km/h 93% 0.5 mm 0 W/m2
03:19 1.8 °C 0.8 °C 1009.1 hPa Calm   9.7 km/h 93% 0.5 mm 0 W/m2
03:24 1.8 °C 0.8 °C 1009.1 hPa WSW 1.4 km/h 3.2 km/h 93% 0.5 mm 0 W/m2
03:29 1.8 °C 0.8 °C 1009.1 hPa West 1.4 km/h 9.7 km/h 93% 0.5 mm 0 W/m2
03:34 1.9 °C 1 °C 1008.8 hPa Calm   3.2 km/h 94% 0.5 mm 0 W/m2
03:39 1.9 °C 1 °C 1008.8 hPa West 1.4 km/h 4.8 km/h 94% 0.5 mm 0 W/m2
03:44 1.9 °C 1 °C 1008.8 hPa WSW 1.4 km/h 3.2 km/h 94% 0.2 mm 0 W/m2
03:49 2 °C 1.1 °C 1008.8 hPa West 1.4 km/h 11.3 km/h 94% 0.2 mm 0 W/m2
03:54 2.1 °C 1.2 °C 1008.5 hPa WNW 1.4 km/h 6.4 km/h 94% 0.0 mm 0 W/m2
03:59 2.1 °C 1.1 °C 1008.5 hPa West 1.4 km/h 11.3 km/h 93% 0.0 mm 0 W/m2
04:04 2.1 °C 1.1 °C 1008.5 hPa WSW 4.7 km/h 6.4 km/h 93% 0.0 mm 0 W/m2
04:09 2.2 °C 1.2 °C 1008.5 hPa Calm   9.7 km/h 93% 0.0 mm 0 W/m2
04:14 2.2 °C 1.2 °C 1008.5 hPa WNW 1.4 km/h 3.2 km/h 93% 0.0 mm 0 W/m2
04:19 2.2 °C 1.2 °C 1008.5 hPa WNW 3.2 km/h 9.7 km/h 93% 0.0 mm 0 W/m2
04:24 2.2 °C 1.2 °C 1008.5 hPa West 1.4 km/h 9.7 km/h 93% 0.0 mm 0 W/m2
04:29 2.2 °C 1.2 °C 1008.1 hPa Calm   3.2 km/h 93% 0.0 mm 0 W/m2
04:34 2.2 °C 1.3 °C 1008.1 hPa NW 4.7 km/h 4.8 km/h 94% 0.0 mm 0 W/m2
04:39 2.2 °C 1.2 °C 1008.1 hPa NNW 1.4 km/h 1.6 km/h 93% 0.0 mm 0 W/m2
04:44 2.3 °C 1.3 °C 1008.1 hPa WSW 3.2 km/h 9.7 km/h 93% 0.0 mm 0 W/m2
04:49 2.3 °C 1.3 °C 1008.1 hPa Calm   1.6 km/h 93% 0.0 mm 0 W/m2
04:54 2.3 °C 1.3 °C 1007.8 hPa Calm   4.8 km/h 93% 0.0 mm 0 W/m2
04:59 2.3 °C 1.3 °C 1007.8 hPa SW 1.4 km/h 3.2 km/h 93% 0.0 mm 0 W/m2
05:04 2.3 °C 1.3 °C 1007.8 hPa West 3.2 km/h 6.4 km/h 93% 0.0 mm 0 W/m2
05:09 2.3 °C 1.3 °C 1007.5 hPa South 1.4 km/h 3.2 km/h 93% 0.0 mm 0 W/m2
05:14 2.3 °C 1.3 °C 1007.5 hPa SW 1.4 km/h 1.6 km/h 93% 0.0 mm 0 W/m2
05:20 2.3 °C 1.3 °C 1007.5 hPa West 3.2 km/h 9.7 km/h 93% 0.0 mm 0 W/m2
05:25 2.3 °C 1.3 °C 1007.5 hPa WNW 1.4 km/h 3.2 km/h 93% 0.0 mm 0 W/m2
05:30 2.3 °C 1.3 °C 1007.5 hPa Calm   1.6 km/h 93% 0.0 mm 0 W/m2
05:35 2.3 °C 1.3 °C 1007.5 hPa West 9.7 km/h 9.7 km/h 93% 0.0 mm 0 W/m2
05:40 2.3 °C 1.3 °C 1007.5 hPa Calm   3.2 km/h 93% 0.0 mm 0 W/m2
05:45 2.2 °C 1.2 °C 1007.1 hPa WSW 4.7 km/h 11.3 km/h 93% 0.0 mm 0 W/m2
05:50 2.2 °C 1.2 °C 1007.1 hPa NNW 4.7 km/h 4.8 km/h 93% 0.0 mm 0 W/m2
05:55 2.2 °C 1.2 °C 1007.1 hPa WNW 1.4 km/h 11.3 km/h 93% 0.0 mm 0 W/m2
06:00 2.2 °C 1.2 °C 1007.1 hPa NNW 3.2 km/h 3.2 km/h 93% 0.0 mm 0 W/m2
06:05 2.2 °C 1.2 °C 1006.8 hPa Calm   6.4 km/h 93% 0.0 mm 0 W/m2
06:10 2.2 °C 1.2 °C 1006.8 hPa SSW 1.4 km/h 3.2 km/h 93% 0.0 mm 0 W/m2
06:15 2.2 °C 1.2 °C 1006.8 hPa NNW 1.4 km/h 3.2 km/h 93% 0.0 mm 0 W/m2
06:20 2.1 °C 1.1 °C 1006.8 hPa NW 4.7 km/h 4.8 km/h 93% 0.0 mm 0 W/m2
06:25 2.1 °C 1.1 °C 1006.8 hPa NW 4.7 km/h 8 km/h 93% 0.0 mm 0 W/m2
06:30 2.1 °C 1.1 °C 1006.4 hPa NNE 1.4 km/h 3.2 km/h 93% 0.0 mm 0 W/m2
06:35 2.2 °C 1.2 °C 1006.4 hPa Calm   4.8 km/h 93% 0.0 mm 0 W/m2
06:40 2.2 °C 1 °C 1006.4 hPa North 1.4 km/h 3.2 km/h 92% 0.0 mm 0 W/m2
06:45 2.1 °C 0.9 °C 1006.4 hPa NNW 4.7 km/h 4.8 km/h 92% 0.0 mm 0 W/m2
06:50 2.1 °C 0.9 °C 1006.1 hPa NE 1.4 km/h 3.2 km/h 92% 0.0 mm 0 W/m2
06:55 2.1 °C 0.9 °C 1006.1 hPa NNE 3.2 km/h 4.8 km/h 92% 0.0 mm 0 W/m2
07:00 2.1 °C 0.9 °C 1006.1 hPa East 1.4 km/h 1.6 km/h 92% 0.0 mm 0 W/m2
07:05 2.1 °C 0.9 °C 1005.8 hPa NNE 4.7 km/h 6.4 km/h 92% 0.0 mm 0 W/m2
07:10 2.2 °C 1 °C 1005.8 hPa NNE 1.4 km/h 8 km/h 92% 0.0 mm 0 W/m2
07:15 2.2 °C 1 °C 1005.8 hPa West 4.7 km/h 9.7 km/h 92% 0.0 mm 0 W/m2
07:20 2.2 °C 1 °C 1005.4 hPa ENE 1.4 km/h 4.8 km/h 92% 0.0 mm 0 W/m2
07:25 2.2 °C 1 °C 1005.4 hPa North 1.4 km/h 3.2 km/h 92% 0.0 mm 0 W/m2
07:31 2.2 °C 1 °C 1005.4 hPa North 4.7 km/h 4.8 km/h 92% 0.0 mm 0 W/m2
07:36 2.3 °C 1.1 °C 1005.4 hPa NNW 1.4 km/h 4.8 km/h 92% 0.0 mm 0 W/m2
07:41 2.3 °C 1.1 °C 1005.1 hPa NNW 1.4 km/h 1.6 km/h 92% 0.0 mm 5 W/m2
07:46 2.3 °C 1.1 °C 1005.1 hPa NNE 3.2 km/h 3.2 km/h 92% 0.0 mm 7 W/m2
07:51 2.3 °C 1.1 °C 1005.1 hPa East 3.2 km/h 3.2 km/h 92% 0.0 mm 7 W/m2
07:56 2.4 °C 1.2 °C 1005.1 hPa Calm   4.8 km/h 92% 0.0 mm 11 W/m2
08:01 2.4 °C 1.2 °C 1004.7 hPa Calm     92% 0.0 mm 5 W/m2
08:06 2.4 °C 1.2 °C 1004.7 hPa ENE 3.2 km/h 3.2 km/h 92% 0.2 mm 5 W/m2
08:11 2.3 °C 1.1 °C 1004.7 hPa East 3.2 km/h 6.4 km/h 92% 0.2 mm 11 W/m2
08:16 2.3 °C 1.1 °C 1004.7 hPa NNE 3.2 km/h 14.5 km/h 92% 0.5 mm 7 W/m2
08:21 2.2 °C 1 °C 1004.4 hPa NE 3.2 km/h 9.7 km/h 92% 0.5 mm 11 W/m2
08:26 2.2 °C 1 °C 1004.4 hPa NE 7.9 km/h 14.5 km/h 92% 0.5 mm 16 W/m2
08:31 2.2 °C 1 °C 1004.1 hPa Calm   4.8 km/h 92% 0.8 mm 12 W/m2
08:36 2.2 °C 1.2 °C 1004.1 hPa East 9.7 km/h 11.3 km/h 93% 0.8 mm 16 W/m2
08:41 2.2 °C 1.2 °C 1004.1 hPa ENE 3.2 km/h 6.4 km/h 93% 0.8 mm 18 W/m2
08:46 2.1 °C 1.1 °C 1004.1 hPa ESE 4.7 km/h 14.5 km/h 93% 0.8 mm 19 W/m2
08:51 2.1 °C 1.1 °C 1003.7 hPa East 6.4 km/h 6.4 km/h 93% 0.8 mm 25 W/m2
08:56 2 °C 1 °C 1003.7 hPa East 6.4 km/h 14.5 km/h 93% 0.8 mm 26 W/m2
09:01 2 °C 1.1 °C 1003.4 hPa ESE 9.7 km/h 11.3 km/h 94% 0.8 mm 33 W/m2
09:06 2 °C 1.1 °C 1003.4 hPa East 6.4 km/h 14.5 km/h 94% 0.8 mm 37 W/m2
09:11 2.1 °C 1.2 °C 1003.0 hPa ENE 3.2 km/h 9.7 km/h 94% 0.8 mm 42 W/m2
09:16 2.1 °C 1.2 °C 1003.0 hPa ESE 3.2 km/h 9.7 km/h 94% 0.5 mm 46 W/m2
09:21 2.1 °C 1.2 °C 1003.0 hPa ESE 6.4 km/h 12.9 km/h 94% 0.5 mm 47 W/m2
09:26 2.2 °C 1.3 °C 1002.7 hPa East 1.4 km/h 6.4 km/h 94% 0.5 mm 51 W/m2
09:31 2.2 °C 1.3 °C 1002.7 hPa ENE 7.9 km/h 11.3 km/h 94% 0.2 mm 49 W/m2
09:36 2.3 °C 1.4 °C 1002.4 hPa East 11.1 km/h 11.3 km/h 94% 0.2 mm 47 W/m2
09:41 2.3 °C 1.4 °C 1002.0 hPa ENE 3.2 km/h 12.9 km/h 94% 0.2 mm 49 W/m2
09:46 2.4 °C 1.5 °C 1002.0 hPa ENE 4.7 km/h 8 km/h 94% 0.2 mm 54 W/m2
09:51 2.4 °C 1.5 °C 1002.0 hPa NNE 1.4 km/h 6.4 km/h 94% 0.2 mm 53 W/m2
09:56 2.4 °C 1.5 °C 1001.7 hPa East 4.7 km/h 11.3 km/h 94% 0.2 mm 56 W/m2
10:01 2.6 °C 1.6 °C 1001.4 hPa ENE 3.2 km/h 11.3 km/h 93% 0.2 mm 53 W/m2
10:06 2.6 °C 1.6 °C 1001.4 hPa ENE 6.4 km/h 9.7 km/h 93% 0.0 mm 54 W/m2
10:11 2.6 °C 1.6 °C 1001.0 hPa East 14.3 km/h 14.5 km/h 93% 0.0 mm 53 W/m2
10:17 2.7 °C 1.7 °C 1001.0 hPa ENE 6.4 km/h 6.4 km/h 93% 0.0 mm 53 W/m2
10:22 2.7 °C 1.7 °C 1000.7 hPa East 9.7 km/h 14.5 km/h 93% 0.0 mm 49 W/m2
10:27 2.7 °C 1.7 °C 1000.3 hPa East 9.7 km/h 16.1 km/h 93% 0.0 mm 46 W/m2
10:32 2.7 °C 1.7 °C 1000.3 hPa East 3.2 km/h 9.7 km/h 93% 0.2 mm 40 W/m2
10:37 2.6 °C 1.6 °C 1000.0 hPa ENE 4.7 km/h 11.3 km/h 93% 0.2 mm 46 W/m2
10:42 2.6 °C 1.6 °C 999.7 hPa SE 6.4 km/h 14.5 km/h 93% 0.2 mm 42 W/m2
10:47 2.5 °C 1.5 °C 999.7 hPa ENE 4.7 km/h 12.9 km/h 93% 0.2 mm 44 W/m2
10:52 2.4 °C 1.4 °C 999.3 hPa SE 3.2 km/h 17.7 km/h 93% 0.5 mm 37 W/m2
10:57 2.4 °C 1.5 °C 999.3 hPa ENE 11.1 km/h 16.1 km/h 94% 0.5 mm 37 W/m2
11:02 2.3 °C 1.4 °C 999.0 hPa ENE 11.1 km/h 17.7 km/h 94% 0.5 mm 35 W/m2
11:07 2.2 °C 1.3 °C 998.6 hPa ENE 4.7 km/h 6.4 km/h 94% 0.5 mm 39 W/m2
11:12 2.2 °C 1.3 °C 998.6 hPa East 4.7 km/h 16.1 km/h 94% 0.5 mm 33 W/m2
11:17 2.1 °C 1.2 °C 998.3 hPa East 3.2 km/h 11.3 km/h 94% 0.8 mm 30 W/m2
11:22 1.9 °C 1 °C 998.3 hPa ENE 4.7 km/h 14.5 km/h 94% 1.0 mm 25 W/m2
11:27 1.8 °C 0.9 °C 998.0 hPa SE 7.9 km/h 12.9 km/h 94% 1.0 mm 19 W/m2
11:32 1.8 °C 0.9 °C 997.6 hPa ESE 9.7 km/h 11.3 km/h 94% 1.0 mm 19 W/m2
11:37 1.6 °C 0.7 °C 997.6 hPa ESE 4.7 km/h 6.4 km/h 94% 1.0 mm 18 W/m2
11:42 1.4 °C 0.5 °C 997.3 hPa ENE 4.7 km/h 11.3 km/h 94% 1.3 mm 14 W/m2
11:47 1.2 °C 0.3 °C 997.0 hPa ESE 6.4 km/h 9.7 km/h 94% 1.3 mm 14 W/m2
11:52 1.1 °C 0.2 °C 997.0 hPa ESE 4.7 km/h 8 km/h 94% 1.0 mm 14 W/m2
11:57 0.9 °C 0.2 °C 996.6 hPa ESE 4.7 km/h 9.7 km/h 95% 1.0 mm 12 W/m2
12:02 0.8 °C 0.1 °C 996.3 hPa East 3.2 km/h 6.4 km/h 95% 1.0 mm 9 W/m2
12:07 0.7 °C 0 °C 995.9 hPa NE 4.7 km/h 4.8 km/h 95% 0.8 mm 7 W/m2
12:12 0.7 °C 0 °C 995.9 hPa Calm   3.2 km/h 95% 0.8 mm 7 W/m2
12:17 0.7 °C 0 °C 995.6 hPa Calm   4.8 km/h 95% 0.5 mm 7 W/m2
12:22 0.6 °C -0.1 °C 995.3 hPa Calm   3.2 km/h 95% 0.5 mm 7 W/m2
12:27 0.6 °C -0.1 °C 994.9 hPa Calm   3.2 km/h 95% 0.5 mm 9 W/m2
12:32 0.6 °C -0.1 °C 994.6 hPa Calm   3.2 km/h 95% 0.2 mm 7 W/m2
12:37 0.6 °C -0.1 °C 994.2 hPa Calm   4.8 km/h 95% 0.2 mm 9 W/m2
12:42 0.6 °C -0.1 °C 994.2 hPa Calm   4.8 km/h 95% 0.0 mm 11 W/m2
12:47 0.6 °C 0 °C 993.9 hPa ENE 1.4 km/h 3.2 km/h 96% 0.0 mm 14 W/m2
12:52 0.6 °C 0 °C 993.9 hPa Calm   3.2 km/h 96% 0.0 mm 12 W/m2
12:57 0.6 °C 0 °C 993.6 hPa East 4.7 km/h 6.4 km/h 96% 0.0 mm 12 W/m2
13:02 0.6 °C 0 °C 993.2 hPa ESE 1.4 km/h 3.2 km/h 96% 0.0 mm 14 W/m2
13:07 0.6 °C 0 °C 993.2 hPa ENE 3.2 km/h 4.8 km/h 96% 0.0 mm 21 W/m2
13:12 0.6 °C 0 °C 992.9 hPa East 3.2 km/h 6.4 km/h 96% 0.0 mm 21 W/m2
13:17 0.6 °C 0 °C 992.5 hPa ENE 3.2 km/h 11.3 km/h 96% 0.0 mm 18 W/m2
13:22 0.6 °C 0 °C 992.5 hPa ESE 9.7 km/h 9.7 km/h 96% 0.0 mm 19 W/m2
13:27 0.6 °C 0 °C 992.2 hPa ENE 4.7 km/h 8 km/h 96% 0.0 mm 23 W/m2
13:32 0.6 °C 0 °C 991.9 hPa NE 3.2 km/h 6.4 km/h 96% 0.0 mm 18 W/m2
13:37 0.6 °C 0 °C 991.5 hPa East 3.2 km/h 6.4 km/h 96% 0.0 mm 19 W/m2
13:42 0.6 °C 0 °C 991.2 hPa East 9.7 km/h 12.9 km/h 96% 0.0 mm 21 W/m2
13:47 0.6 °C 0 °C 991.2 hPa NE 7.9 km/h 9.7 km/h 96% 0.0 mm 23 W/m2
13:53 0.6 °C 0 °C 990.9 hPa ESE 3.2 km/h 12.9 km/h 96% 0.0 mm 19 W/m2
13:58 0.7 °C 0.1 °C 990.5 hPa NE 3.2 km/h 12.9 km/h 96% 0.0 mm 33 W/m2
14:03 0.7 °C 0.1 °C 990.5 hPa East 6.4 km/h 9.7 km/h 96% 0.2 mm 30 W/m2
14:08 0.8 °C 0.2 °C 990.2 hPa East 4.7 km/h 8 km/h 96% 0.5 mm 28 W/m2
14:13 0.8 °C 0.2 °C 989.8 hPa NNE 3.2 km/h 12.9 km/h 96% 0.5 mm 26 W/m2
14:18 0.8 °C 0.2 °C 989.8 hPa ENE 6.4 km/h 11.3 km/h 96% 0.5 mm 25 W/m2
14:23 0.8 °C 0.2 °C 989.5 hPa ENE 4.7 km/h 9.7 km/h 96% 0.8 mm 25 W/m2
14:28 0.9 °C 0.3 °C 989.5 hPa NE 3.2 km/h 4.8 km/h 96% 0.8 mm 25 W/m2
14:33 0.9 °C 0.3 °C 989.2 hPa ESE 6.4 km/h 8 km/h 96% 1.0 mm 37 W/m2
14:38 1 °C 0.4 °C 989.2 hPa ESE 3.2 km/h 4.8 km/h 96% 1.3 mm 35 W/m2
14:43 1 °C 0.4 °C 989.2 hPa ENE 3.2 km/h 6.4 km/h 96% 1.3 mm 30 W/m2
14:48 1.1 °C 0.5 °C 988.5 hPa ENE 3.2 km/h 6.4 km/h 96% 1.5 mm 30 W/m2
14:53 1.1 °C 0.5 °C 988.5 hPa Calm   4.8 km/h 96% 1.5 mm 33 W/m2
14:58 1.1 °C 0.5 °C 988.1 hPa ENE 3.2 km/h 6.4 km/h 96% 1.8 mm 28 W/m2
15:03 1.1 °C 0.5 °C 987.8 hPa East 3.2 km/h 4.8 km/h 96% 1.8 mm 37 W/m2
15:08 1.2 °C 0.6 °C 987.8 hPa East 1.4 km/h 4.8 km/h 96% 1.8 mm 37 W/m2
15:13 1.2 °C 0.6 °C 987.8 hPa East 1.4 km/h 3.2 km/h 96% 2.0 mm 30 W/m2
15:18 1.3 °C 0.7 °C 987.5 hPa East 3.2 km/h 4.8 km/h 96% 1.8 mm 33 W/m2
15:23 1.3 °C 0.7 °C 987.1 hPa Calm   3.2 km/h 96% 1.8 mm 26 W/m2
15:28 1.3 °C 0.7 °C 987.1 hPa East 4.8 km/h 4.8 km/h 96% 2.0 mm 26 W/m2
15:33 1.3 °C 0.7 °C 987.1 hPa Calm     96% 2.3 mm 21 W/m2
15:39 1.3 °C 0.7 °C 986.8 hPa Calm     96% 2.3 mm 33 W/m2
15:44 1.3 °C 0.7 °C 986.8 hPa Calm     96% 2.5 mm 46 W/m2
15:49 1.4 °C 0.8 °C 986.8 hPa NNW 3.2 km/h 3.2 km/h 96% 2.5 mm 28 W/m2
15:54 1.4 °C 0.8 °C 986.8 hPa SE 3.2 km/h 9.7 km/h 96% 2.8 mm 18 W/m2
15:59 1.4 °C 0.8 °C 987.1 hPa West 6.4 km/h 6.4 km/h 96% 3.3 mm 33 W/m2
16:04 1.4 °C 0.8 °C 987.8 hPa West 6.4 km/h 17.7 km/h 96% 3.6 mm 32 W/m2
16:09 3.2 °C 2.8 °C 988.1 hPa West 20.9 km/h 33.8 km/h 97% 3.6 mm 49 W/m2
16:14 4.3 °C 4 °C 988.5 hPa WSW 16.3 km/h 29 km/h 98% 3.8 mm 84 W/m2
16:19 4.4 °C 4.1 °C 988.8 hPa NW 22.7 km/h 35.4 km/h 98% 4.1 mm 88 W/m2
16:24 4.3 °C 3.9 °C 989.2 hPa West 20.9 km/h 41.8 km/h 97% 4.3 mm 79 W/m2
16:29 4.4 °C 3.7 °C 989.2 hPa NW 11.1 km/h 38.6 km/h 95% 4.3 mm 60 W/m2
16:34 4.3 °C 3.4 °C 989.8 hPa West 19.5 km/h 32.2 km/h 94% 4.1 mm 74 W/m2
16:39 4.2 °C 3.2 °C 990.2 hPa WNW 27.4 km/h 37 km/h 93% 4.1 mm 62 W/m2
16:44 3.9 °C 2.7 °C 990.5 hPa WNW 19.5 km/h 27.4 km/h 92% 4.1 mm 72 W/m2
16:49 3.8 °C 2.6 °C 990.9 hPa West 14.3 km/h 25.7 km/h 92% 4.1 mm 56 W/m2
16:55 3.7 °C 2.4 °C 991.2 hPa WSW 20.9 km/h 33.8 km/h 91% 4.1 mm 47 W/m2
17:00 3.6 °C 2.3 °C 991.5 hPa West 17.7 km/h 38.6 km/h 91% 3.6 mm 56 W/m2
17:05 3.4 °C 1.9 °C 991.9 hPa WSW 50.1 km/h 51.5 km/h 90% 3.3 mm 40 W/m2
17:10 3.4 °C 1.8 °C 992.2 hPa West 19.5 km/h 25.7 km/h 89% 3.0 mm 53 W/m2
17:15 3.3 °C 1.7 °C 992.5 hPa West 20.9 km/h 51.5 km/h 89% 2.8 mm 44 W/m2
17:20 3.3 °C 1.7 °C 993.2 hPa West 27.4 km/h 33.8 km/h 89% 2.8 mm 40 W/m2
17:25 3.2 °C 1.4 °C 993.6 hPa WNW 20.9 km/h 33.8 km/h 88% 2.5 mm 42 W/m2
17:30 3.2 °C 1.4 °C 993.9 hPa WSW 20.9 km/h 37 km/h 88% 2.3 mm 35 W/m2
17:35 3.2 °C 1.4 °C 993.9 hPa West 19.5 km/h 29 km/h 88% 2.3 mm 30 W/m2
17:40 3.2 °C 1.2 °C 994.2 hPa NNW 20.9 km/h 56.3 km/h 87% 2.3 mm 25 W/m2
17:45 3.2 °C 1.2 °C 994.6 hPa WSW 27.4 km/h 27.4 km/h 87% 2.0 mm 18 W/m2
17:50 3.2 °C 1.2 °C 994.9 hPa West 41.7 km/h 54.7 km/h 87% 1.8 mm 11 W/m2
17:55 3.1 °C 1.1 °C 995.3 hPa West 32 km/h 48.3 km/h 87% 1.8 mm 11 W/m2
18:00 3.1 °C 1.1 °C 995.9 hPa WSW 13 km/h 32.2 km/h 87% 1.5 mm 14 W/m2
18:05 3.1 °C 1.1 °C 996.3 hPa NW 20.9 km/h 48.3 km/h 87% 1.5 mm 14 W/m2
18:10 3.1 °C 1.1 °C 997.0 hPa West 27.4 km/h 40.2 km/h 87% 1.5 mm 11 W/m2
18:15 3.1 °C 1 °C 997.0 hPa WNW 17.7 km/h 30.6 km/h 86% 1.5 mm 5 W/m2
18:20 3.1 °C 1.1 °C 997.3 hPa West 19.5 km/h 35.4 km/h 87% 1.5 mm 5 W/m2
18:25 3.1 °C 1 °C 998.0 hPa West 27.4 km/h 37 km/h 86% 1.5 mm 0 W/m2
18:30 3.2 °C 1.1 °C 998.0 hPa SW 32 km/h 35.4 km/h 86% 1.5 mm 0 W/m2
18:35 3.1 °C 1 °C 998.3 hPa NW 14.3 km/h 25.7 km/h 86% 1.3 mm 0 W/m2
18:40 3.1 °C 0.8 °C 998.6 hPa West 32 km/h 35.4 km/h 85% 1.3 mm 0 W/m2
18:45 3.1 °C 0.8 °C 999.0 hPa NW 22.7 km/h 29 km/h 85% 1.3 mm 0 W/m2
18:50 3.1 °C 0.8 °C 999.3 hPa WNW 24.1 km/h 43.5 km/h 85% 1.0 mm 0 W/m2
18:55 3.1 °C 0.8 °C 1000.0 hPa NW 33.8 km/h 37 km/h 85% 0.8 mm 0 W/m2
19:00 3.1 °C 0.8 °C 1000.3 hPa WNW 17.7 km/h 30.6 km/h 85% 1.0 mm 0 W/m2
19:05 3 °C 0.7 °C 1000.3 hPa WNW 35.2 km/h 40.2 km/h 85% 0.8 mm 0 W/m2
19:10 2.9 °C 0.6 °C 1000.7 hPa WNW 20.9 km/h 37 km/h 85% 0.8 mm 0 W/m2
19:15 2.9 °C 0.6 °C 1001.0 hPa WNW 27.4 km/h 37 km/h 85% 0.8 mm 0 W/m2
19:20 2.9 °C 0.6 °C 1001.4 hPa West 19.5 km/h 32.2 km/h 85% 0.8 mm 0 W/m2
19:25 2.9 °C 0.6 °C 1001.7 hPa West 28.8 km/h 48.3 km/h 85% 0.5 mm 0 W/m2
19:30 2.9 °C 0.6 °C 1002.0 hPa NNE 27.4 km/h 48.3 km/h 85% 0.5 mm 0 W/m2
19:35 2.9 °C 0.8 °C 1002.4 hPa West 24.1 km/h 32.2 km/h 86% 0.5 mm 0 W/m2
19:40 2.9 °C 0.8 °C 1002.7 hPa West 11.1 km/h 48.3 km/h 86% 0.5 mm 0 W/m2
19:45 2.9 °C 0.8 °C 1003.0 hPa NNW 16.3 km/h 35.4 km/h 86% 0.5 mm 0 W/m2
19:50 2.8 °C 0.7 °C 1003.4 hPa WNW 20.9 km/h 32.2 km/h 86% 0.5 mm 0 W/m2
19:55 2.9 °C 0.8 °C 1003.7 hPa NW 14.3 km/h 29 km/h 86% 0.5 mm 0 W/m2
20:00 2.8 °C 0.7 °C 1004.1 hPa WSW 37 km/h 37 km/h 86% 0.5 mm 0 W/m2
20:05 2.9 °C 0.8 °C 1004.1 hPa West 32 km/h 40.2 km/h 86% 0.5 mm 0 W/m2
20:10 2.9 °C 0.8 °C 1004.4 hPa WNW 16.3 km/h 27.4 km/h 86% 0.5 mm 0 W/m2
20:15 3 °C 0.9 °C 1004.7 hPa West 22.7 km/h 40.2 km/h 86% 0.2 mm 0 W/m2
20:20 3 °C 0.7 °C 1004.7 hPa WNW 14.3 km/h 20.9 km/h 85% 0.2 mm 0 W/m2
20:25 3.2 °C 0.9 °C 1005.1 hPa West 20.9 km/h 43.5 km/h 85% 0.2 mm 0 W/m2
20:30 3.2 °C 0.9 °C 1005.4 hPa West 28.8 km/h 37 km/h 85% 0.2 mm 0 W/m2
20:35 3.3 °C 0.9 °C 1006.1 hPa WNW 16.3 km/h 41.8 km/h 84% 0.2 mm 0 W/m2
20:40 3.3 °C 0.9 °C 1006.1 hPa WNW 17.7 km/h 30.6 km/h 84% 0.2 mm 0 W/m2
20:45 3.4 °C 1 °C 1006.4 hPa WNW 17.7 km/h 27.4 km/h 84% 0.5 mm 0 W/m2
20:50 3.4 °C 1 °C 1006.4 hPa West 17.7 km/h 25.7 km/h 84% 0.5 mm 0 W/m2
20:55 3.4 °C 1 °C 1006.8 hPa NW 13 km/h 29 km/h 84% 0.2 mm 0 W/m2
21:00 3.4 °C 1 °C 1006.8 hPa West 22.7 km/h 25.7 km/h 84% 0.2 mm 0 W/m2
21:05 3.3 °C 1 °C 1007.5 hPa West 13 km/h 29 km/h 85% 0.2 mm 0 W/m2
21:10 3.3 °C 1 °C 1007.5 hPa West 13 km/h 27.4 km/h 85% 0.2 mm 0 W/m2
21:15 3.3 °C 1.2 °C 1007.8 hPa West 19.5 km/h 29 km/h 86% 0.2 mm 0 W/m2
21:20 3.2 °C 1.2 °C 1007.8 hPa West 11.1 km/h 22.5 km/h 87% 0.2 mm 0 W/m2
21:25 3.1 °C 1.1 °C 1008.1 hPa NW 13 km/h 24.1 km/h 87% 0.2 mm 0 W/m2
21:30 2.9 °C 1.1 °C 1008.1 hPa West 13 km/h 20.9 km/h 88% 0.2 mm 0 W/m2
21:35 2.9 °C 1.3 °C 1008.5 hPa WNW 7.9 km/h 24.1 km/h 89% 0.2 mm 0 W/m2
21:41 2.8 °C 1.2 °C 1008.8 hPa West 13 km/h 27.4 km/h 89% 0.2 mm 0 W/m2
21:46 2.9 °C 1.3 °C 1009.1 hPa WNW 17.7 km/h 25.7 km/h 89% 0.0 mm 0 W/m2
21:51 3 °C 1.2 °C 1009.1 hPa West 22.7 km/h 22.5 km/h 88% 0.0 mm 0 W/m2
21:56 3.1 °C 1.3 °C 1009.5 hPa WNW 11.1 km/h 37 km/h 88% 0.0 mm 0 W/m2
22:01 3.1 °C 1.3 °C 1009.8 hPa West 16.3 km/h 27.4 km/h 88% 0.0 mm 0 W/m2
22:06 3.1 °C 1.1 °C 1009.8 hPa WNW 17.7 km/h 27.4 km/h 87% 0.0 mm 0 W/m2
22:11 3.1 °C 1.1 °C 1010.2 hPa WSW 16.3 km/h 20.9 km/h 87% 0.0 mm 0 W/m2
22:16 3.1 °C 1.1 °C 1010.2 hPa WNW 17.7 km/h 22.5 km/h 87% 0.0 mm 0 W/m2
22:21 3.1 °C 1.1 °C 1010.2 hPa WNW 17.7 km/h 22.5 km/h 87% 0.0 mm 0 W/m2
22:26 3 °C 0.9 °C 1010.2 hPa West 16.3 km/h 19.3 km/h 86% 0.0 mm 0 W/m2
22:31 3 °C 0.9 °C 1010.5 hPa WSW 20.9 km/h 20.9 km/h 86% 0.0 mm 0 W/m2
22:36 2.9 °C 1 °C 1010.5 hPa West 27.4 km/h 27.4 km/h 87% 0.0 mm 0 W/m2
22:41 2.9 °C 1 °C 1010.8 hPa NW 11.1 km/h 19.3 km/h 87% 0.0 mm 0 W/m2
22:46 2.9 °C 1 °C 1010.8 hPa West 13 km/h 22.5 km/h 87% 0.0 mm 0 W/m2
22:51 2.8 °C 0.9 °C 1010.8 hPa WNW 19.5 km/h 29 km/h 87% 0.0 mm 0 W/m2
22:56 2.9 °C 1 °C 1010.8 hPa NNW 19.5 km/h 22.5 km/h 87% 0.0 mm 0 W/m2
23:01 2.8 °C 0.9 °C 1011.2 hPa NW 9.7 km/h 29 km/h 87% 0.0 mm 0 W/m2
23:06 2.8 °C 0.9 °C 1011.2 hPa West 13 km/h 19.3 km/h 87% 0.0 mm 0 W/m2
23:11 2.8 °C 0.9 °C 1011.5 hPa North 17.7 km/h 27.4 km/h 87% 0.0 mm 0 W/m2
23:16 2.8 °C 0.9 °C 1011.5 hPa SW 14.3 km/h 20.9 km/h 87% 0.0 mm 0 W/m2
23:21 2.8 °C 0.7 °C 1011.9 hPa WNW 14.3 km/h 27.4 km/h 86% 0.0 mm 0 W/m2
23:26 2.8 °C 0.7 °C 1011.9 hPa West 16.3 km/h 24.1 km/h 86% 0.0 mm 0 W/m2
23:31 2.8 °C 0.7 °C 1011.9 hPa NW 19.5 km/h 19.3 km/h 86% 0.0 mm 0 W/m2
23:36 2.7 °C 0.6 °C 1012.2 hPa West 11.1 km/h 14.5 km/h 86% 0.0 mm 0 W/m2
23:41 2.7 °C 0.8 °C 1012.2 hPa WNW 6.4 km/h 29 km/h 87% 0.0 mm 0 W/m2
23:46 2.7 °C 0.8 °C 1012.2 hPa WSW 17.7 km/h 24.1 km/h 87% 0.0 mm 0 W/m2
23:51 2.7 °C 0.8 °C 1012.5 hPa WSW 17.7 km/h 20.9 km/h 87% 0.0 mm 0 W/m2
23:56 2.6 °C 0.7 °C 1012.5 hPa West 19.5 km/h 29 km/h 87% 0.0 mm 0 W/m2
Juneau County Weather
Compliments of Weather Underground - 4 mb